Dennis, Mississippi
Current Conditions -  °F | °C
As of 7:15 AM on Monday 22 Dec 2014 (Local Time) from KCRX Reporting Station
Overcast Overcast  
Wind Chill: 52°   Ceiling: 700
Heat Index: 52°   Visibility: 9mi
Dew Point: 48°   Wind: 10mph
Humidity: 88%   Direction: 140°SE
Pressure: 29.88"   Gusts: 16mph
Location:  34.56°N, 88.23°W
Report Text: KCRX 221315Z AUTO 14009G14KT 9SM OVC007 11/09 A2988 RMK AO2
Loading
Personal Weather Stations






























Interactive Weather Map New forecast layout! Learn more

10-Day Weather Forecast

Advertisements
Track Severe Weather on mobile